createdAt,value
2024-03-12T00:02:08.786Z,64.80
2024-03-12T00:04:35.571Z,65.20
2024-03-12T00:07:02.773Z,65.56
2024-03-12T00:09:29.894Z,65.27
2024-03-12T00:11:56.795Z,65.24
2024-03-12T00:14:24.770Z,65.23
2024-03-12T00:16:51.749Z,65.27
2024-03-12T00:19:18.540Z,65.33
2024-03-12T00:21:45.350Z,65.85
2024-03-12T00:24:12.207Z,65.92
2024-03-12T00:26:39.326Z,66.24
2024-03-12T00:29:06.084Z,66.42
2024-03-12T00:31:32.943Z,66.54
2024-03-12T00:34:02.030Z,66.89
2024-03-12T00:36:30.357Z,66.96
2024-03-12T00:38:58.863Z,66.67
2024-03-12T00:41:25.717Z,66.54
2024-03-12T00:43:53.544Z,66.70
2024-03-12T00:46:20.520Z,66.62
2024-03-12T00:48:48.470Z,66.49
2024-03-12T00:51:16.910Z,66.14
2024-03-12T00:53:43.988Z,65.91
2024-03-12T00:56:10.792Z,65.90
2024-03-12T00:58:40.572Z,65.83
2024-03-12T01:01:08.372Z,65.68
2024-03-12T01:03:35.634Z,65.61
2024-03-12T01:06:02.925Z,65.54
2024-03-12T01:08:30.301Z,65.60
2024-03-12T01:10:57.353Z,65.80
2024-03-12T01:13:25.868Z,65.69
2024-03-12T01:15:55.601Z,65.74
2024-03-12T01:18:22.642Z,65.57
2024-03-12T01:20:50.835Z,65.44
2024-03-12T01:23:17.772Z,65.42
2024-03-12T01:25:44.707Z,65.42
2024-03-12T01:28:12.196Z,65.21
2024-03-12T01:30:39.415Z,65.09
2024-03-12T01:33:07.669Z,65.10
2024-03-12T01:35:40.818Z,64.89
2024-03-12T01:38:11.402Z,64.87
2024-03-12T01:40:39.327Z,64.74
2024-03-12T01:43:08.581Z,64.80
2024-03-12T01:45:37.441Z,64.58
2024-03-12T01:48:09.036Z,64.39
2024-03-12T01:50:37.915Z,64.42
2024-03-12T01:53:09.564Z,64.32
2024-03-12T01:55:45.624Z,64.58
2024-03-12T01:58:17.701Z,64.75
2024-03-12T02:00:46.383Z,64.72
2024-03-12T02:03:13.961Z,64.42
2024-03-12T02:05:43.062Z,64.27
2024-03-12T02:08:11.206Z,64.17
2024-03-12T02:10:38.239Z,64.01
2024-03-12T02:13:05.637Z,63.79
2024-03-12T02:15:34.394Z,63.63
2024-03-12T02:18:01.512Z,63.57
2024-03-12T02:20:28.815Z,63.63
2024-03-12T02:22:56.964Z,63.59
2024-03-12T02:25:24.710Z,63.64
2024-03-12T02:27:53.264Z,63.75
2024-03-12T02:30:20.956Z,63.96
2024-03-12T02:32:49.250Z,63.84
2024-03-12T02:35:17.319Z,63.76
2024-03-12T02:37:44.861Z,63.76
2024-03-12T02:40:16.617Z,63.83
2024-03-12T02:42:44.620Z,63.85
2024-03-12T02:45:17.140Z,63.82
2024-03-12T02:47:46.787Z,63.87
2024-03-12T02:50:15.083Z,63.76
2024-03-12T02:52:43.583Z,63.69
2024-03-12T02:55:10.849Z,63.42
2024-03-12T02:57:38.482Z,63.40
2024-03-12T03:00:16.236Z,63.46
2024-03-12T03:02:43.881Z,63.23
2024-03-12T03:05:12.174Z,63.36
2024-03-12T03:07:44.279Z,63.41
2024-03-12T03:10:13.219Z,63.23
2024-03-12T03:12:41.264Z,63.01
2024-03-12T03:15:13.549Z,62.97
2024-03-12T03:17:45.177Z,62.78
2024-03-12T03:20:13.642Z,62.67
2024-03-12T03:22:41.145Z,62.65
2024-03-12T03:25:09.694Z,62.71
2024-03-12T03:27:36.552Z,62.91
2024-03-12T03:30:04.840Z,63.12
2024-03-12T03:32:31.727Z,63.01
2024-03-12T03:34:58.714Z,62.92
2024-03-12T03:37:31.966Z,62.82
2024-03-12T03:39:58.885Z,62.76
2024-03-12T03:42:26.140Z,62.75
2024-03-12T03:44:52.979Z,62.52
2024-03-12T03:47:19.696Z,62.65
2024-03-12T03:49:49.052Z,62.56
2024-03-12T03:52:16.048Z,62.53
2024-03-12T03:54:43.015Z,62.49
2024-03-12T03:57:11.225Z,62.62
2024-03-12T03:59:38.105Z,62.53
2024-03-12T04:02:06.608Z,62.56
2024-03-12T04:04:33.538Z,62.63
2024-03-12T04:07:00.409Z,62.79
2024-03-12T04:09:27.464Z,63.05
2024-03-12T04:11:54.911Z,63.28
2024-03-12T04:14:21.748Z,63.54
2024-03-12T04:16:48.558Z,63.67
2024-03-12T04:19:16.248Z,63.79
2024-03-12T04:21:45.420Z,63.60
2024-03-12T04:24:15.190Z,63.55
2024-03-12T04:26:46.925Z,63.59
2024-03-12T04:29:13.808Z,63.66
2024-03-12T04:31:41.083Z,63.61
2024-03-12T04:34:10.132Z,63.97
2024-03-12T04:36:37.460Z,64.04
2024-03-12T04:39:24.000Z,63.92
2024-03-12T04:41:50.868Z,64.07
2024-03-12T04:44:18.543Z,64.12
2024-03-12T04:46:45.620Z,64.07
2024-03-12T04:49:12.497Z,63.97
2024-03-12T04:51:41.955Z,64.13
2024-03-12T04:54:08.776Z,64.14
2024-03-12T04:56:35.728Z,64.01
2024-03-12T04:59:02.585Z,64.35
2024-03-12T05:01:29.497Z,64.51
2024-03-12T05:03:59.677Z,64.78
2024-03-12T05:06:29.022Z,64.63
2024-03-12T05:08:57.325Z,64.48
2024-03-12T05:11:24.293Z,64.53
2024-03-12T05:13:51.034Z,64.51
2024-03-12T05:16:17.879Z,64.62
2024-03-12T05:18:44.791Z,64.49
2024-03-12T05:21:12.042Z,64.71
2024-03-12T05:23:39.212Z,64.90
2024-03-12T05:26:05.972Z,64.68
2024-03-12T05:28:33.669Z,64.69
2024-03-12T05:31:00.685Z,64.68
2024-03-12T05:33:31.308Z,64.64
2024-03-12T05:35:58.346Z,64.83
2024-03-12T05:38:35.421Z,64.76
2024-03-12T05:41:11.846Z,64.69
2024-03-12T05:43:57.810Z,64.88
2024-03-12T05:46:47.055Z,64.80
2024-03-12T05:49:17.354Z,64.79
2024-03-12T05:51:48.029Z,64.80
2024-03-12T05:54:15.099Z,64.77
2024-03-12T05:56:41.836Z,64.83
2024-03-12T05:59:08.945Z,64.65
2024-03-12T06:01:36.165Z,64.57
2024-03-12T06:04:04.384Z,65.19
2024-03-12T06:06:34.272Z,65.65
2024-03-12T06:09:02.101Z,65.77
2024-03-12T06:11:29.005Z,65.81
2024-03-12T06:13:55.939Z,65.74
2024-03-12T06:16:22.979Z,65.98
2024-03-12T06:18:49.872Z,65.92
2024-03-12T06:21:17.676Z,66.18
2024-03-12T06:23:45.978Z,66.06
2024-03-12T06:26:13.059Z,66.48
2024-03-12T06:28:40.268Z,66.95
2024-03-12T06:31:07.352Z,67.34
2024-03-12T06:33:34.848Z,67.91
2024-03-12T06:36:02.179Z,68.24
2024-03-12T06:38:29.019Z,68.13
2024-03-12T06:40:55.697Z,67.95
2024-03-12T06:43:22.717Z,68.42
2024-03-12T06:45:50.609Z,68.96
2024-03-12T06:48:19.746Z,69.05
2024-03-12T06:50:47.059Z,69.02
2024-03-12T06:53:15.907Z,69.15
2024-03-12T06:55:42.765Z,69.06
2024-03-12T06:58:13.018Z,69.12
2024-03-12T07:00:46.260Z,69.19
2024-03-12T07:03:15.725Z,69.05
2024-03-12T07:05:48.440Z,68.75
2024-03-12T07:08:18.901Z,68.69
2024-03-12T07:10:46.864Z,68.40
2024-03-12T07:13:14.438Z,67.88
2024-03-12T07:15:43.746Z,67.61
2024-03-12T07:18:11.002Z,67.67
2024-03-12T07:20:38.072Z,67.68
2024-03-12T07:23:06.946Z,67.70
2024-03-12T07:25:34.366Z,67.92
2024-03-12T07:28:14.008Z,67.61
2024-03-12T07:30:41.561Z,66.73
2024-03-12T07:33:08.564Z,66.51
2024-03-12T07:35:36.067Z,66.24
2024-03-12T07:38:04.640Z,65.86
2024-03-12T07:40:33.366Z,65.12
2024-03-12T07:43:00.628Z,65.11
2024-03-12T07:45:28.763Z,64.66
2024-03-12T07:47:56.987Z,64.13
2024-03-12T07:50:24.125Z,63.31
2024-03-12T07:52:52.439Z,62.79
2024-03-12T07:55:19.309Z,61.67
2024-03-12T07:57:46.380Z,61.45
2024-03-12T08:00:17.958Z,61.93
2024-03-12T08:02:45.034Z,61.03
2024-03-12T08:05:14.177Z,61.86
2024-03-12T08:07:41.396Z,59.87
2024-03-12T08:10:11.070Z,61.01
2024-03-12T08:12:41.217Z,61.31
2024-03-12T08:15:10.281Z,61.14
2024-03-12T08:17:39.200Z,61.08
2024-03-12T08:20:07.478Z,61.48
2024-03-12T08:22:34.647Z,60.92
2024-03-12T08:25:02.334Z,60.79
2024-03-12T08:27:29.375Z,60.61
2024-03-12T08:29:58.708Z,60.95
2024-03-12T08:32:26.561Z,62.21
2024-03-12T08:34:53.517Z,62.07
2024-03-12T08:37:20.354Z,61.06
2024-03-12T08:39:48.082Z,61.57
2024-03-12T08:42:14.952Z,61.12
2024-03-12T08:44:41.902Z,60.80
2024-03-12T08:47:09.989Z,60.72
2024-03-12T08:49:36.770Z,60.75
2024-03-12T08:52:04.691Z,60.54
2024-03-12T08:54:32.765Z,59.22
2024-03-12T08:56:59.578Z,58.59
2024-03-12T08:59:26.329Z,57.98
2024-03-12T09:01:58.442Z,58.22
2024-03-12T09:04:25.559Z,58.38
2024-03-12T09:06:52.443Z,57.88
2024-03-12T09:09:19.733Z,57.61
2024-03-12T09:11:47.892Z,58.05
2024-03-12T09:14:14.728Z,58.55
2024-03-12T09:16:42.021Z,58.62
2024-03-12T09:19:10.261Z,58.66
2024-03-12T09:21:37.244Z,59.14
2024-03-12T09:24:06.445Z,59.84
2024-03-12T09:26:34.824Z,58.94
2024-03-12T09:29:01.990Z,59.79
2024-03-12T09:31:28.873Z,60.10
2024-03-12T09:33:56.727Z,60.07
2024-03-12T09:36:25.780Z,60.16
2024-03-12T09:38:52.878Z,60.11
2024-03-12T09:41:26.937Z,59.68
2024-03-12T09:43:55.321Z,59.87
2024-03-12T09:46:22.998Z,59.24
2024-03-12T09:48:52.884Z,58.96
2024-03-12T09:51:22.431Z,58.84
2024-03-12T09:53:50.502Z,58.93
2024-03-12T09:56:19.177Z,58.33
2024-03-12T09:58:46.298Z,57.74
2024-03-12T10:01:14.213Z,57.72
2024-03-12T10:03:42.472Z,57.95
2024-03-12T10:06:10.814Z,58.25
2024-03-12T10:08:37.905Z,58.17
2024-03-12T10:11:10.138Z,58.88
2024-03-12T10:13:40.217Z,57.95
2024-03-12T10:16:08.616Z,57.34
2024-03-12T10:18:36.274Z,58.28
2024-03-12T10:21:03.925Z,57.83
2024-03-12T10:23:35.101Z,57.22
2024-03-12T10:26:17.177Z,57.58
2024-03-12T10:28:46.864Z,57.70
2024-03-12T10:31:16.228Z,57.42
2024-03-12T10:33:51.900Z,56.49
2024-03-12T10:36:34.062Z,56.14
2024-03-12T10:39:01.295Z,55.99
2024-03-12T10:41:28.278Z,56.03
2024-03-12T10:44:12.354Z,55.98
2024-03-12T10:46:46.319Z,55.89
2024-03-12T10:49:14.630Z,55.08
2024-03-12T10:51:44.250Z,54.25
2024-03-12T10:54:18.155Z,54.46
2024-03-12T10:56:47.706Z,53.87
2024-03-12T10:59:17.582Z,53.55
2024-03-12T11:01:44.700Z,53.76
2024-03-12T11:04:14.166Z,54.49
2024-03-12T11:06:41.191Z,54.85
2024-03-12T11:09:09.310Z,54.02
2024-03-12T11:11:36.393Z,54.61
2024-03-12T11:14:07.680Z,54.69
2024-03-12T11:16:36.795Z,55.06
2024-03-12T11:19:27.557Z,55.13
2024-03-12T11:22:02.448Z,54.60
2024-03-12T11:24:31.528Z,54.11
2024-03-12T11:27:01.543Z,53.43
2024-03-12T11:30:05.794Z,53.68
2024-03-12T11:32:39.775Z,53.41
2024-03-12T11:35:11.188Z,52.64
2024-03-12T11:37:39.307Z,51.59
2024-03-12T11:40:32.398Z,51.84
2024-03-12T11:42:59.846Z,51.68
2024-03-12T11:45:42.745Z,50.87
2024-03-12T11:48:11.198Z,51.15
2024-03-12T11:50:43.913Z,50.99
2024-03-12T11:53:22.865Z,50.59
2024-03-12T11:56:00.452Z,49.71
2024-03-12T11:58:32.871Z,50.20
2024-03-12T12:01:01.567Z,50.68
2024-03-12T12:03:29.110Z,50.47
2024-03-12T12:05:56.246Z,49.43
2024-03-12T12:08:23.759Z,47.33
2024-03-12T12:10:58.957Z,48.22
2024-03-12T12:13:26.410Z,47.57
2024-03-12T12:16:06.444Z,47.51
2024-03-12T12:18:34.982Z,47.80
2024-03-12T12:21:04.443Z,47.78
2024-03-12T12:23:31.403Z,48.05
2024-03-12T12:25:58.638Z,48.71
2024-03-12T12:28:27.175Z,48.19
2024-03-12T12:31:02.139Z,46.11
2024-03-12T12:33:31.813Z,47.06
2024-03-12T12:36:09.557Z,47.31
2024-03-12T12:38:37.835Z,44.89
2024-03-12T12:41:09.728Z,45.40
2024-03-12T12:43:36.697Z,43.49
2024-03-12T12:46:06.674Z,43.78
2024-03-12T12:48:36.352Z,42.75
2024-03-12T12:51:06.447Z,43.76
2024-03-12T12:53:33.261Z,44.11
2024-03-12T12:56:04.692Z,41.88
2024-03-12T12:58:35.112Z,41.98
2024-03-12T13:01:03.385Z,40.42
2024-03-12T13:03:45.098Z,41.67
2024-03-12T13:06:17.799Z,41.25
2024-03-12T13:08:46.982Z,40.25
2024-03-12T13:11:19.681Z,41.73
2024-03-12T13:13:52.328Z,40.70
2024-03-12T13:16:25.750Z,41.58
2024-03-12T13:18:59.666Z,40.74
2024-03-12T13:21:26.873Z,40.22
2024-03-12T13:23:54.488Z,38.56
2024-03-12T13:26:24.369Z,38.09
2024-03-12T13:28:55.508Z,38.63
2024-03-12T13:31:23.547Z,38.83
2024-03-12T13:33:52.368Z,39.54
2024-03-12T13:36:20.616Z,40.33
2024-03-12T13:38:51.028Z,38.98
2024-03-12T13:41:22.212Z,36.16
2024-03-12T13:43:50.065Z,34.83
2024-03-12T13:46:19.013Z,36.14
2024-03-12T13:48:45.927Z,34.18
2024-03-12T13:51:12.776Z,35.72
2024-03-12T13:53:44.405Z,36.66
2024-03-12T13:56:11.414Z,36.82
2024-03-12T13:58:42.612Z,35.96
2024-03-12T14:01:14.235Z,35.63
2024-03-12T14:03:41.831Z,35.80
2024-03-12T14:06:10.621Z,36.35
2024-03-12T14:08:37.892Z,36.49
2024-03-12T14:11:05.048Z,37.07
2024-03-12T14:13:33.220Z,38.30
2024-03-12T14:16:00.474Z,37.95
2024-03-12T14:18:28.417Z,37.62
2024-03-12T14:20:56.325Z,37.88
2024-03-12T14:23:24.052Z,37.91
2024-03-12T14:25:51.016Z,39.23
2024-03-12T14:28:17.883Z,39.60
2024-03-12T14:30:46.202Z,39.18
2024-03-12T14:33:13.699Z,38.79
2024-03-12T14:35:40.752Z,38.20
2024-03-12T14:38:07.598Z,37.75
2024-03-12T14:40:34.445Z,38.63
2024-03-12T14:43:02.013Z,39.33
2024-03-12T14:45:30.692Z,39.49
2024-03-12T14:47:57.851Z,39.75
2024-03-12T14:50:24.877Z,38.48
2024-03-12T14:52:52.147Z,38.93
2024-03-12T14:55:21.857Z,39.68
2024-03-12T14:57:49.046Z,38.93
2024-03-12T15:00:17.929Z,39.73
2024-03-12T15:02:46.999Z,38.45
2024-03-12T15:05:14.071Z,38.34
2024-03-12T15:07:43.656Z,38.41
2024-03-12T15:10:11.496Z,38.64
2024-03-12T15:12:42.334Z,38.47
2024-03-12T15:15:13.827Z,37.59
2024-03-12T15:17:42.786Z,38.13
2024-03-12T15:20:17.010Z,37.98
2024-03-12T15:22:46.798Z,38.79
2024-03-12T15:25:14.311Z,38.51
2024-03-12T15:27:45.020Z,38.61
2024-03-12T15:30:13.252Z,38.26
2024-03-12T15:32:40.606Z,38.61
2024-03-12T15:35:09.945Z,38.65
2024-03-12T15:37:36.969Z,36.30
2024-03-12T15:40:09.193Z,36.30
2024-03-12T15:42:37.662Z,36.96
2024-03-12T15:45:06.495Z,36.87
2024-03-12T15:47:35.421Z,38.21
2024-03-12T15:50:02.624Z,38.84
2024-03-12T15:52:29.474Z,39.45
2024-03-12T15:54:56.500Z,39.84
2024-03-12T15:57:24.350Z,40.41
2024-03-12T15:59:51.220Z,39.41
2024-03-12T16:02:19.378Z,39.96
2024-03-12T16:04:46.422Z,40.02
2024-03-12T16:07:13.455Z,40.30
2024-03-12T16:09:40.613Z,39.05
2024-03-12T16:12:07.717Z,37.83
2024-03-12T16:14:34.460Z,39.30
2024-03-12T16:17:04.670Z,40.61
2024-03-12T16:19:32.441Z,41.44
2024-03-12T16:22:01.336Z,41.23
2024-03-12T16:24:31.960Z,41.69
2024-03-12T16:26:59.422Z,41.78
2024-03-12T16:29:28.162Z,41.50
2024-03-12T16:31:55.956Z,41.62
2024-03-12T16:34:26.941Z,41.18
2024-03-12T16:36:57.720Z,41.69
2024-03-12T16:39:24.753Z,42.00
2024-03-12T16:41:57.952Z,42.27
2024-03-12T16:44:27.718Z,42.57
2024-03-12T16:46:57.221Z,43.85
2024-03-12T16:49:24.234Z,43.68
2024-03-12T16:51:51.546Z,44.44
2024-03-12T16:54:19.070Z,44.81
2024-03-12T16:56:46.466Z,44.92
2024-03-12T16:59:15.189Z,45.12
2024-03-12T17:01:43.132Z,45.30
2024-03-12T17:04:11.999Z,45.76
2024-03-12T17:06:44.887Z,46.07
2024-03-12T17:09:11.950Z,46.19
2024-03-12T17:11:39.363Z,46.26
2024-03-12T17:14:12.076Z,46.66
2024-03-12T17:16:44.679Z,46.47
2024-03-12T17:19:13.948Z,46.57
2024-03-12T17:21:42.373Z,46.65
2024-03-12T17:24:09.643Z,46.70
2024-03-12T17:26:38.264Z,46.68
2024-03-12T17:29:06.112Z,46.67
2024-03-12T17:31:33.111Z,46.60
2024-03-12T17:34:00.277Z,46.75
2024-03-12T17:36:30.233Z,46.90
2024-03-12T17:39:00.907Z,46.93
2024-03-12T17:41:27.945Z,47.10
2024-03-12T17:43:54.923Z,47.15
2024-03-12T17:46:23.323Z,47.55
2024-03-12T17:48:51.135Z,48.35
2024-03-12T17:51:19.117Z,48.45
2024-03-12T17:53:46.565Z,48.74
2024-03-12T17:56:14.548Z,49.12
2024-03-12T17:58:46.605Z,49.42
2024-03-12T18:01:13.662Z,49.31
2024-03-12T18:03:41.380Z,49.31
2024-03-12T18:06:12.235Z,49.48
2024-03-12T18:08:43.951Z,49.29
2024-03-12T18:11:12.843Z,49.38
2024-03-12T18:13:40.120Z,49.25
2024-03-12T18:16:07.324Z,48.97
2024-03-12T18:18:34.218Z,48.83
2024-03-12T18:21:03.510Z,49.12
2024-03-12T18:23:30.656Z,49.06
2024-03-12T18:25:58.045Z,48.40
2024-03-12T18:28:24.971Z,48.35
2024-03-12T18:30:51.976Z,47.81
2024-03-12T18:33:18.808Z,47.77
2024-03-12T18:35:47.558Z,48.31
2024-03-12T18:38:14.563Z,48.75
2024-03-12T18:40:41.670Z,48.91
2024-03-12T18:43:08.758Z,49.14
2024-03-12T18:45:36.440Z,48.81
2024-03-12T18:48:03.660Z,48.22
2024-03-12T18:50:32.098Z,48.07
2024-03-12T18:52:59.154Z,47.53
2024-03-12T18:55:28.284Z,47.81
2024-03-12T18:57:55.748Z,47.41
2024-03-12T19:00:25.137Z,47.02
2024-03-12T19:02:53.964Z,46.86
2024-03-12T19:05:23.292Z,46.78
2024-03-12T19:07:52.396Z,46.17
2024-03-12T19:10:20.596Z,45.92
2024-03-12T19:12:48.038Z,45.93
2024-03-12T19:15:22.072Z,45.51
2024-03-12T19:17:53.099Z,45.58
2024-03-12T19:20:23.734Z,45.62
2024-03-12T19:22:54.735Z,45.57
2024-03-12T19:25:23.673Z,45.20
2024-03-12T19:27:52.468Z,45.05
2024-03-12T19:30:20.434Z,45.05
2024-03-12T19:32:51.926Z,45.03
2024-03-12T19:35:19.638Z,44.81
2024-03-12T19:37:47.640Z,44.84
2024-03-12T19:40:18.180Z,44.99
2024-03-12T19:42:46.789Z,44.47
2024-03-12T19:45:21.402Z,44.64
2024-03-12T19:47:49.978Z,44.38
2024-03-12T19:50:26.517Z,44.56
2024-03-12T19:52:54.716Z,44.69
2024-03-12T19:55:26.132Z,44.68
2024-03-12T19:57:57.560Z,44.48
2024-03-12T20:00:31.029Z,44.25
2024-03-12T20:02:58.824Z,44.49
2024-03-12T20:05:26.207Z,44.48
2024-03-12T20:07:53.619Z,44.61
2024-03-12T20:10:20.839Z,44.54
2024-03-12T20:12:56.147Z,44.21
2024-03-12T20:15:24.729Z,44.29
2024-03-12T20:17:54.585Z,44.52
2024-03-12T20:20:24.231Z,44.42
2024-03-12T20:22:52.326Z,44.34
2024-03-12T20:25:21.089Z,44.47
2024-03-12T20:27:55.157Z,44.74
2024-03-12T20:30:28.292Z,44.51
2024-03-12T20:33:00.492Z,44.55
2024-03-12T20:35:29.072Z,44.73
2024-03-12T20:37:56.949Z,44.88
2024-03-12T20:40:26.466Z,44.81
2024-03-12T20:42:54.068Z,44.73
2024-03-12T20:45:23.721Z,44.52
2024-03-12T20:47:51.093Z,44.48
2024-03-12T20:50:20.404Z,44.33
2024-03-12T20:52:48.375Z,44.22
2024-03-12T20:55:16.123Z,43.99
2024-03-12T20:57:51.271Z,43.88
2024-03-12T21:00:19.802Z,43.76
2024-03-12T21:02:53.416Z,43.63
2024-03-12T21:05:20.617Z,43.96
2024-03-12T21:07:47.406Z,44.30
2024-03-12T21:10:14.508Z,44.23
2024-03-12T21:12:43.886Z,43.68
2024-03-12T21:15:11.174Z,43.42
2024-03-12T21:17:39.028Z,43.24
2024-03-12T21:20:13.714Z,43.06
2024-03-12T21:22:40.700Z,43.14
2024-03-12T21:25:08.359Z,42.84
2024-03-12T21:27:35.517Z,43.27
2024-03-12T21:30:07.246Z,42.94
2024-03-12T21:32:34.342Z,42.60
2024-03-12T21:35:01.478Z,42.80
2024-03-12T21:37:28.176Z,42.90
2024-03-12T21:39:55.129Z,42.44
2024-03-12T21:42:23.169Z,42.43
2024-03-12T21:44:50.116Z,42.88
2024-03-12T21:47:17.010Z,42.56
2024-03-12T21:49:44.402Z,42.66
2024-03-12T21:52:11.216Z,42.73
2024-03-12T21:54:37.917Z,43.08
2024-03-12T21:57:05.053Z,43.13
2024-03-12T21:59:31.759Z,42.59
2024-03-12T22:02:00.678Z,42.78
2024-03-12T22:04:29.145Z,43.31
2024-03-12T22:06:55.949Z,44.71
2024-03-12T22:09:25.971Z,45.18
2024-03-12T22:11:52.821Z,45.94
2024-03-12T22:14:19.596Z,46.56
2024-03-12T22:16:46.763Z,46.85
2024-03-12T22:19:16.636Z,46.82
2024-03-12T22:21:50.729Z,47.72
2024-03-12T22:24:23.520Z,48.24
2024-03-12T22:26:54.873Z,47.65
2024-03-12T22:29:21.700Z,47.99
2024-03-12T22:31:49.864Z,47.66
2024-03-12T22:34:17.023Z,47.93
2024-03-12T22:36:45.532Z,47.94
2024-03-12T22:39:14.406Z,47.91
2024-03-12T22:41:48.832Z,48.07
2024-03-12T22:44:16.643Z,47.83
2024-03-12T22:46:45.630Z,47.72
2024-03-12T22:49:12.981Z,47.83
2024-03-12T22:51:41.730Z,47.95
2024-03-12T22:54:11.867Z,48.21
2024-03-12T22:56:39.162Z,48.21
2024-03-12T22:59:07.726Z,48.00
2024-03-12T23:01:41.161Z,47.58
2024-03-12T23:04:09.626Z,47.63
2024-03-12T23:06:36.755Z,47.69
2024-03-12T23:09:05.525Z,47.25
2024-03-12T23:11:32.370Z,48.22
2024-03-12T23:13:59.126Z,49.19
2024-03-12T23:16:26.123Z,49.61
2024-03-12T23:18:54.584Z,50.15
2024-03-12T23:21:21.945Z,49.90
2024-03-12T23:23:48.696Z,50.16
2024-03-12T23:26:18.171Z,50.72
2024-03-12T23:28:45.465Z,51.03
2024-03-12T23:31:12.225Z,51.02
2024-03-12T23:33:40.482Z,50.80
2024-03-12T23:36:08.671Z,51.45
2024-03-12T23:38:36.539Z,51.31
2024-03-12T23:41:03.693Z,51.65
2024-03-12T23:43:31.835Z,52.22
2024-03-12T23:45:59.051Z,52.53
2024-03-12T23:48:26.072Z,52.31
2024-03-12T23:50:54.988Z,53.42
2024-03-12T23:53:21.946Z,53.47
2024-03-12T23:55:49.101Z,52.86
2024-03-12T23:58:16.797Z,53.13
